Decoded Metar for YPAD (ADELAIDE in AUSTRALIA) (IATA:ADL) | Meteo·Mobile Aviation Weather
aviador You're here:

YPAD Decoded Metar

ADELAIDE in AUSTRALIA
Report Time2018-09-18 15:30:00
UTC Time2018-09-18 15:52:46
Flight Rules vfr VFR
Wind230° at 15 kt
W.Decomp.*RWY 23: 14.9 kt HW 2.1 kt LCW
RWY 30: 3.1 kt HW 14.7 kt LCW
W.Rank230° ranks 1
Current wind is above 230° avg. (12.0)
Visibility9999 m
Phenomena:N/A
Clouds:Few 030 Hf
Expected CloudBase > 2,800 ft AGL from Temp-Dew spread
CeilingNone
Temp11°C (ISA -4)
Dew Point04°C (62% RH)
AAT4.3°C
QNH1016 hPa
Density Alt-453 ft
Elevation13 ft
Report Wrong Elevation
Raw Report
YPAD 181530Z 23015KT 9999 FEW030 11/04 Q1016 NOSIG=

Extra information for YPAD:More info

Metar Taf Metar & Taf Last 4 Metars F.Rules Stats Wind Profile Meteogram Temp Stats Airport Information Weather charts Add Link Nearby VenuesMetar ALERT Operation Metar Decoded Social comments

Adelaide Airport Webcam